LOLF weather

Freistadt Airport
Freistadt, Upper Austria, Austria

Public forecast

Using degrees Celsius for public forecast. Weather courtesy of forecast.io.

METAR (pilot weather report)

Closest report is Linz Hörsching Airport, 19.1 nm (35.3 km) SSW. Retrieved 2019/03/25 23:20 UTC (22 minutes ago):

LOWL 252320Z AUTO 25008KT 9999 FEW015 SCT024 BKN050 04/01 Q1023

TAF (pilot weather forecast)

Closest forecast is Linz Hörsching Airport, 19.1 nm (35.3 km) SSW. Retrieved 2019/03/25 18:20 UTC (5 hours ago):

TAF LOWL 251715Z 2518/2618 26013KT 9999 SCT045 SCT080 TX08/2614Z TN03/2603Z TEMPO 2518/2520 28015G25KT -SHRA FEW030TCU BKN040 TEMPO 2523/2608 28005KT 5000 -RASN SCT008 BKN015 TEMPO 2608/2615 29017G27KT